Seabreeze — VABC8 — position and weather

sailwx.info

Track history (hours):
 
Tides and Currents Weather Stations Pressure Air Temp Water Temp Dewpoint Dewpoint Depression Visibility Wind Speed Wind Dir Waves Ship Positions

Seabreeze

Last reported at 2017-Nov-19 23:15 UTC. Time now 2017-Nov-21 12:11 UTC.
Position S 27°32' E 153°18'.

Length 20 m.

Type: Ship. MMSI: 503760000.

Date/timePositionNaut miles runAvg speedWind from/ knotsBaromVisibWave heightAir tempDewpointWater temp
2017-Nov-19 23:15S 27°32' E 153°18'6 4.9
2017-Nov-19 22:07S 27°30' E 153°24'0 0.5
2017-Nov-19 21:44S 27°31' E 153°24'510.3
2017-Nov-19 21:16S 27°33' E 153°19'2 4.0
2017-Nov-19 20:52S 27°32' E 153°17'0 0.0
2017-Nov-19 20:28S 27°32' E 153°17'0 0.0
2017-Nov-19 19:58S 27°32' E 153°17'0 0.0
2017-Nov-19 19:28S 27°32' E 153°17'0 0.0
2017-Nov-19 17:10S 27°32' E 153°17'0 0.0
2017-Nov-19 16:34S 27°32' E 153°17'0 0.0
2017-Nov-19 15:16S 27°32' E 153°17'6 0.9
2017-Nov-19 08:21S 27°30' E 153°24'0 0.7
2017-Nov-19 08:00S 27°30' E 153°24'510.0
2017-Nov-19 07:27S 27°32' E 153°18'5 1.6
2017-Nov-19 04:10S 27°31' E 153°24'0 0.4
2017-Nov-19 03:42S 27°31' E 153°24'0 0.0
2017-Nov-19 01:40S 27°31' E 153°24'2 9.9
2017-Nov-19 01:25S 27°32' E 153°21'3 0.6
2017-Nov-18 21:11S 27°32' E 153°18'1 4.2
2017-Nov-18 20:52S 27°32' E 153°17'0 0.0
2017-Nov-18 20:28S 27°32' E 153°17'0 0.0
2017-Nov-18 08:52S 27°32' E 153°17'2 5.0
2017-Nov-18 08:29S 27°32' E 153°19'5 9.8
2017-Nov-18 08:00S 27°30' E 153°24'3 5.9
2017-Nov-18 07:27S 27°32' E 153°21'3 5.9
2017-Nov-18 06:55S 27°32' E 153°17'6 7.2
2017-Nov-18 06:04S 27°31' E 153°24'0 5.0
2017-Nov-18 05:59S 27°30' E 153°24'5 6.8
2017-Nov-18 05:17S 27°32' E 153°19'2 6.3
2017-Nov-18 04:59S 27°32' E 153°17'6 6.8
2017-Nov-18 04:08S 27°31' E 153°24'0 1.4
2017-Nov-18 03:47S 27°30' E 153°24'5 9.6
2017-Nov-18 03:14S 27°33' E 153°18'5 4.9
2017-Nov-18 02:07S 27°30' E 153°24'0 0.7
2017-Nov-18 01:43S 27°31' E 153°24'310.3
2017-Nov-18 01:27S 27°32' E 153°21'2 1.7
2017-Nov-18 00:07S 27°31' E 153°23'1 8.1
2017-Nov-18 00:00S 27°30' E 153°24'0 0.0
2017-Nov-17 22:01S 27°30' E 153°24'1 2.2
2017-Nov-17 21:41S 27°31' E 153°24'510.0
2017-Nov-17 21:11S 27°32' E 153°18'1 4.4
2017-Nov-17 20:55S 27°32' E 153°17'0 0.0
2017-Nov-17 20:19S 27°32' E 153°17'0 0.0
2017-Nov-17 19:49S 27°32' E 153°17'0 0.0
2017-Nov-17 11:17S 27°32' E 153°17'6 7.8
2017-Nov-17 10:33S 27°31' E 153°23'111.0
2017-Nov-17 10:30S 27°30' E 153°24'6 7.3
2017-Nov-17 09:43S 27°32' E 153°18'1 3.1
2017-Nov-17 09:27S 27°32' E 153°17'6 7.6
2017-Nov-17 08:40S 27°31' E 153°24'1 1.9
2017-Nov-17 08:21S 27°31' E 153°23'1 0.5
2017-Nov-17 06:41S 27°31' E 153°24'0 1.8
2017-Nov-17 06:28S 27°30' E 153°24'5 8.8
2017-Nov-17 05:51S 27°32' E 153°18'1 3.8
2017-Nov-17 05:29S 27°32' E 153°17'6 6.7
2017-Nov-17 04:38S 27°31' E 153°23'1 2.5
2017-Nov-17 04:18S 27°30' E 153°24'4 8.7
2017-Nov-17 03:53S 27°32' E 153°20'3 1.5
2017-Nov-17 01:54S 27°31' E 153°23'0 0.2
2017-Nov-17 00:17S 27°31' E 153°23'1 1.9
2017-Nov-16 23:45S 27°30' E 153°24'310.8
2017-Nov-16 23:26S 27°32' E 153°20'3 2.4
2017-Nov-16 22:04S 27°30' E 153°24'0 1.3
2017-Nov-16 21:42S 27°31' E 153°23'311.1
2017-Nov-16 21:25S 27°32' E 153°20'3 2.9
2017-Nov-16 20:30S 27°32' E 153°17'0 0.0
2017-Nov-16 19:57S 27°32' E 153°17'6 0.5
2017-Nov-16 08:06S 27°30' E 153°24'1 0.1
2017-Nov-16 03:51S 27°31' E 153°23'5 9.9
2017-Nov-16 03:22S 27°32' E 153°18'0 0.2
2017-Nov-16 01:17S 27°32' E 153°18'1 0.1
2017-Nov-15 21:09S 27°32' E 153°18'1 4.1
2017-Nov-15 20:49S 27°32' E 153°17'6 0.4
2017-Nov-15 04:05S 27°31' E 153°24'0 3.7
2017-Nov-15 03:58S 27°30' E 153°24'1 0.3
2017-Nov-15 02:07S 27°31' E 153°24'1 1.4
2017-Nov-15 01:36S 27°31' E 153°23'1 0.2
2017-Nov-14 21:44S 27°31' E 153°24'311.0
2017-Nov-14 21:29S 27°32' E 153°21'3 3.9
2017-Nov-14 20:38S 27°32' E 153°17'0 0.0
2017-Nov-14 20:27S 27°32' E 153°17'6 0.4
2017-Nov-14 03:43S 27°30' E 153°24'0 0.0
2017-Nov-13 22:07S 27°30' E 153°24'0 0.0
2017-Nov-13 21:50S 27°30' E 153°24'1 0.0
2017-Nov-12 09:56S 27°31' E 153°24'0 0.1
2017-Nov-12 08:08S 27°31' E 153°24'0 0.5
2017-Nov-12 07:41S 27°31' E 153°24'310.9
2017-Nov-12 07:25S 27°32' E 153°21'3 2.6
2017-Nov-12 06:08S 27°30' E 153°24'0 0.1
2017-Nov-12 05:46S 27°30' E 153°24'0 0.1
2017-Nov-12 02:08S 27°31' E 153°24'0 1.1
2017-Nov-12 01:48S 27°30' E 153°24'3 8.7
2017-Nov-12 01:30S 27°31' E 153°21'2 1.4
2017-Nov-12 00:08S 27°31' E 153°23'1 2.4
2017-Nov-11 23:47S 27°30' E 153°24'3 8.7
2017-Nov-11 23:29S 27°32' E 153°22'4 7.1
2017-Nov-11 22:56S 27°32' E 153°17'6 6.9
2017-Nov-11 22:06S 27°31' E 153°23'1 2.1
2017-Nov-11 21:43S 27°30' E 153°24'510.0
2017-Nov-11 21:13S 27°32' E 153°19'4 0.3
2017-Nov-11 08:08S 27°31' E 153°23'1 1.5
2017-Nov-11 07:44S 27°31' E 153°24'510.6
2017-Nov-11 07:14S 27°33' E 153°18'5 4.3
2017-Nov-11 06:10S 27°31' E 153°23'5 1.6
2017-Nov-11 03:18S 27°32' E 153°18'5 4.5
2017-Nov-11 02:16S 27°31' E 153°23'1 3.1
2017-Nov-11 01:58S 27°30' E 153°24'6 9.6
2017-Nov-11 01:23S 27°32' E 153°18'0 0.1
2017-Nov-11 00:42S 27°32' E 153°18'510.8
2017-Nov-11 00:14S 27°31' E 153°24'1 2.4
2017-Nov-10 23:56S 27°30' E 153°24'5 9.5
2017-Nov-10 23:26S 27°32' E 153°19'2 3.7
2017-Nov-10 22:56S 27°32' E 153°17'6 7.4
2017-Nov-10 22:09S 27°31' E 153°24'1 2.5
2017-Nov-10 21:50S 27°30' E 153°24'6 0.6
2017-Nov-10 10:49S 27°32' E 153°17'5 7.9
2017-Nov-10 10:08S 27°31' E 153°23'1 2.0
2017-Nov-10 09:43S 27°30' E 153°24'310.5
2017-Nov-10 09:24S 27°32' E 153°20'3 6.2
2017-Nov-10 08:56S 27°32' E 153°17'6 8.1
2017-Nov-10 08:15S 27°31' E 153°23'0 0.8
2017-Nov-10 07:52S 27°31' E 153°24'511.0
2017-Nov-10 07:25S 27°33' E 153°18'5 4.7
2017-Nov-10 06:24S 27°31' E 153°23'  
Track history (hours):
 
Tides and Currents Weather Stations Pressure Air Temp Water Temp Dewpoint Dewpoint Depression Visibility Wind Speed Wind Dir Waves Ship Positions

Seabreeze

Last reported at 2017-Nov-19 23:15 UTC. Time now 2017-Nov-21 12:11 UTC.
Position S 27°32' E 153°18'.

Length 20 m.

Type: Ship. MMSI: 503760000.

Date/timePositionNaut miles runAvg speedWind from/ knotsBaromVisibWave heightAir tempDewpointWater temp
2017-Nov-19 23:15S 27°32' E 153°18'6 4.9
2017-Nov-19 22:07S 27°30' E 153°24'0 0.5
2017-Nov-19 21:44S 27°31' E 153°24'510.3
2017-Nov-19 21:16S 27°33' E 153°19'2 4.0
2017-Nov-19 20:52S 27°32' E 153°17'0 0.0
2017-Nov-19 20:28S 27°32' E 153°17'0 0.0
2017-Nov-19 19:58S 27°32' E 153°17'0 0.0
2017-Nov-19 19:28S 27°32' E 153°17'0 0.0
2017-Nov-19 17:10S 27°32' E 153°17'0 0.0
2017-Nov-19 16:34S 27°32' E 153°17'0 0.0
2017-Nov-19 15:16S 27°32' E 153°17'6 0.9
2017-Nov-19 08:21S 27°30' E 153°24'0 0.7
2017-Nov-19 08:00S 27°30' E 153°24'510.0
2017-Nov-19 07:27S 27°32' E 153°18'5 1.6
2017-Nov-19 04:10S 27°31' E 153°24'0 0.4
2017-Nov-19 03:42S 27°31' E 153°24'0 0.0
2017-Nov-19 01:40S 27°31' E 153°24'2 9.9
2017-Nov-19 01:25S 27°32' E 153°21'3 0.6
2017-Nov-18 21:11S 27°32' E 153°18'1 4.2
2017-Nov-18 20:52S 27°32' E 153°17'0 0.0
2017-Nov-18 20:28S 27°32' E 153°17'0 0.0
2017-Nov-18 08:52S 27°32' E 153°17'2 5.0
2017-Nov-18 08:29S 27°32' E 153°19'5 9.8
2017-Nov-18 08:00S 27°30' E 153°24'3 5.9
2017-Nov-18 07:27S 27°32' E 153°21'3 5.9
2017-Nov-18 06:55S 27°32' E 153°17'6 7.2
2017-Nov-18 06:04S 27°31' E 153°24'0 5.0
2017-Nov-18 05:59S 27°30' E 153°24'5 6.8
2017-Nov-18 05:17S 27°32' E 153°19'2 6.3
2017-Nov-18 04:59S 27°32' E 153°17'6 6.8
2017-Nov-18 04:08S 27°31' E 153°24'0 1.4
2017-Nov-18 03:47S 27°30' E 153°24'5 9.6
2017-Nov-18 03:14S 27°33' E 153°18'5 4.9
2017-Nov-18 02:07S 27°30' E 153°24'0 0.7
2017-Nov-18 01:43S 27°31' E 153°24'310.3
2017-Nov-18 01:27S 27°32' E 153°21'2 1.7
2017-Nov-18 00:07S 27°31' E 153°23'1 8.1
2017-Nov-18 00:00S 27°30' E 153°24'0 0.0
2017-Nov-17 22:01S 27°30' E 153°24'1 2.2
2017-Nov-17 21:41S 27°31' E 153°24'510.0
2017-Nov-17 21:11S 27°32' E 153°18'1 4.4
2017-Nov-17 20:55S 27°32' E 153°17'0 0.0
2017-Nov-17 20:19S 27°32' E 153°17'0 0.0
2017-Nov-17 19:49S 27°32' E 153°17'0 0.0
2017-Nov-17 11:17S 27°32' E 153°17'6 7.8
2017-Nov-17 10:33S 27°31' E 153°23'111.0
2017-Nov-17 10:30S 27°30' E 153°24'6 7.3
2017-Nov-17 09:43S 27°32' E 153°18'1 3.1
2017-Nov-17 09:27S 27°32' E 153°17'6 7.6
2017-Nov-17 08:40S 27°31' E 153°24'1 1.9
2017-Nov-17 08:21S 27°31' E 153°23'1 0.5
2017-Nov-17 06:41S 27°31' E 153°24'0 1.8
2017-Nov-17 06:28S 27°30' E 153°24'5 8.8
2017-Nov-17 05:51S 27°32' E 153°18'1 3.8
2017-Nov-17 05:29S 27°32' E 153°17'6 6.7
2017-Nov-17 04:38S 27°31' E 153°23'1 2.5
2017-Nov-17 04:18S 27°30' E 153°24'4 8.7
2017-Nov-17 03:53S 27°32' E 153°20'3 1.5
2017-Nov-17 01:54S 27°31' E 153°23'0 0.2
2017-Nov-17 00:17S 27°31' E 153°23'1 1.9
2017-Nov-16 23:45S 27°30' E 153°24'310.8
2017-Nov-16 23:26S 27°32' E 153°20'3 2.4
2017-Nov-16 22:04S 27°30' E 153°24'0 1.3
2017-Nov-16 21:42S 27°31' E 153°23'311.1
2017-Nov-16 21:25S 27°32' E 153°20'3 2.9
2017-Nov-16 20:30S 27°32' E 153°17'0 0.0
2017-Nov-16 19:57S 27°32' E 153°17'6 0.5
2017-Nov-16 08:06S 27°30' E 153°24'1 0.1
2017-Nov-16 03:51S 27°31' E 153°23'5 9.9
2017-Nov-16 03:22S 27°32' E 153°18'0 0.2
2017-Nov-16 01:17S 27°32' E 153°18'1 0.1
2017-Nov-15 21:09S 27°32' E 153°18'1 4.1
2017-Nov-15 20:49S 27°32' E 153°17'6 0.4
2017-Nov-15 04:05S 27°31' E 153°24'0 3.7
2017-Nov-15 03:58S 27°30' E 153°24'1 0.3
2017-Nov-15 02:07S 27°31' E 153°24'1 1.4
2017-Nov-15 01:36S 27°31' E 153°23'1 0.2
2017-Nov-14 21:44S 27°31' E 153°24'311.0
2017-Nov-14 21:29S 27°32' E 153°21'3 3.9
2017-Nov-14 20:38S 27°32' E 153°17'0 0.0
2017-Nov-14 20:27S 27°32' E 153°17'6 0.4
2017-Nov-14 03:43S 27°30' E 153°24'0 0.0
2017-Nov-13 22:07S 27°30' E 153°24'0 0.0
2017-Nov-13 21:50S 27°30' E 153°24'1 0.0
2017-Nov-12 09:56S 27°31' E 153°24'0 0.1
2017-Nov-12 08:08S 27°31' E 153°24'0 0.5
2017-Nov-12 07:41S 27°31' E 153°24'310.9
2017-Nov-12 07:25S 27°32' E 153°21'3 2.6
2017-Nov-12 06:08S 27°30' E 153°24'0 0.1
2017-Nov-12 05:46S 27°30' E 153°24'0 0.1
2017-Nov-12 02:08S 27°31' E 153°24'0 1.1
2017-Nov-12 01:48S 27°30' E 153°24'3 8.7
2017-Nov-12 01:30S 27°31' E 153°21'2 1.4
2017-Nov-12 00:08S 27°31' E 153°23'1 2.4
2017-Nov-11 23:47S 27°30' E 153°24'3 8.7
2017-Nov-11 23:29S 27°32' E 153°22'4 7.1
2017-Nov-11 22:56S 27°32' E 153°17'6 6.9
2017-Nov-11 22:06S 27°31' E 153°23'1 2.1
2017-Nov-11 21:43S 27°30' E 153°24'510.0
2017-Nov-11 21:13S 27°32' E 153°19'4 0.3
2017-Nov-11 08:08S 27°31' E 153°23'1 1.5
2017-Nov-11 07:44S 27°31' E 153°24'510.6
2017-Nov-11 07:14S 27°33' E 153°18'5 4.3
2017-Nov-11 06:10S 27°31' E 153°23'5 1.6
2017-Nov-11 03:18S 27°32' E 153°18'5 4.5
2017-Nov-11 02:16S 27°31' E 153°23'1 3.1
2017-Nov-11 01:58S 27°30' E 153°24'6 9.6
2017-Nov-11 01:23S 27°32' E 153°18'0 0.1
2017-Nov-11 00:42S 27°32' E 153°18'510.8
2017-Nov-11 00:14S 27°31' E 153°24'1 2.4
2017-Nov-10 23:56S 27°30' E 153°24'5 9.5
2017-Nov-10 23:26S 27°32' E 153°19'2 3.7
2017-Nov-10 22:56S 27°32' E 153°17'6 7.4
2017-Nov-10 22:09S 27°31' E 153°24'1 2.5
2017-Nov-10 21:50S 27°30' E 153°24'6 0.6
2017-Nov-10 10:49S 27°32' E 153°17'5 7.9
2017-Nov-10 10:08S 27°31' E 153°23'1 2.0
2017-Nov-10 09:43S 27°30' E 153°24'310.5
2017-Nov-10 09:24S 27°32' E 153°20'3 6.2
2017-Nov-10 08:56S 27°32' E 153°17'6 8.1
2017-Nov-10 08:15S 27°31' E 153°23'0 0.8
2017-Nov-10 07:52S 27°31' E 153°24'511.0
2017-Nov-10 07:25S 27°33' E 153°18'5 4.7
2017-Nov-10 06:24S 27°31' E 153°23'  

Dump ship's entire track history